ENMS/MJF METAR and TAF weather

Enter ICAO airport designator
Station Type Date Time Source
ENMS METAR 2020/10/20 17:50 UTC NOAA

ENMS 201750Z VRB04KT CAVOK M02/M05 Q1012 RMK WIND 412FT 24004KT 180V290


Station Type Date Time Source
ENMS Decoded METAR 2020/10/20 17:50 UTC NOAA

Mosjoen Kjaerstad, Norway (ENMS) 65-48N 013-08E
Oct 20, 2020 - 01:50 PM EDT / 2020.10.20 1750 UTC
Wind: Variable at 5 MPH (4 KT):0
Visibility: greater than 7 mile(s):0
Temperature: 28 F (-2 C)
Windchill: 23 F (-5 C):1
Dew Point: 23 F (-5 C)
Relative Humidity: 79%
Pressure (altimeter): 29.88 in. Hg (1012 hPa)
ob: ENMS 201750Z VRB04KT CAVOK M02/M05 Q1012 RMK WIND 412FT 24004KT 180V290
cycle: 18

Station Type Date Time Source
ENMS TAF UTC NOAA

Error!

Example: see airport list